Adams, WI (53910)

2:08 PM CDT on September 02, 2015 (GMT -0500)
Necedah Township | | Change Station
CLOSE
Current Station
Personal Weather Station
Location: Necedah, WI
Elevation: 890 ft
Nearby Weather Stations

Elev 890 ft 44.00 °N, 89.99 °W | Updated 9 seconds ago

Clear
Clear
84.6 °F
Feels Like 93 °F
N
2.0
Wind Variable Wind from WNW
Gusts 2.8 mph

Today
High -- | Low -- °F
--% Chance of Precip.
Yesterday
High -- | Low -- °F
Precip. -- in
6:23 AM 7:33 PM
Waning Gibbous, 78% visible
Pressure 29.96 in
Visibility 10.0 miles
Clouds Few 3500 ft
Few 14000 ft
Scattered Clouds 25000 ft
Heat Index 93 °F
Dew Point 75 °F
Humidity 72%
Rainfall 0.00 in
Snow Depth Not available.
UV 6 out of 12
Pollen 10.00 out of 12
Air Quality Not available.
Flu Activity Not available.
METAR KVOK 021858Z 20005KT 10SM FEW035 FEW140 SCT250 29/23 A2996 RMK AO2A CB DSNT NW SLP143
Pressure 29.96 in
Visibility 10.0 miles
Clouds Few 3500 ft
Few 14000 ft
Scattered Clouds 25000 ft
Heat Index 93 °F
Dew Point 75 °F
Humidity 72%
Rainfall 0.00 in
Snow Depth Not available.
UV 6 out of 12
Pollen 10.00 out of 12
Air Quality Not available.
Flu Activity Not available.
METAR KVOK 021858Z 20005KT 10SM FEW035 FEW140 SCT250 29/23 A2996 RMK AO2A CB DSNT NW SLP143

10-Day Weather Forecast

×

Almanac

Astronomy

Sep. 02, 2015 Rise Set
Actual Time
Civil Twilight
Nautical Twilight
Astronomical Twilight
Moon
Length of Visible Light
Length of Day
Tomorrow will be .
, % of the Moon is Illuminated

Today's Extremes

State Highs State Lows

Community

WunderPhotos

Upload Photos

1,851,799 photos uploaded!

WunderBlogs® & News

Nearby

Air Quality

  Air Quality AQ Index Pollutant
Not available.

Snow Depth

Station Depth Elevation

Earthquake Activity

City Distance Mag. Time & Date
Minimum magnitude displayed is 2.5.

Coastal Water Temperatures

Place Temperature

Stations

Nearby Weather Stations

Station Location Temp. Windchill Dew Point Humidity Wind Precip. Elev Updated Type